CTA weather

Catania-Fontanarossa Airport
Catania, Sicily, Italy

Public forecast

Using degrees Celsius for public forecast. Weather courtesy of forecast.io.

Current aviation weather report (METAR) for Catania-Fontanarossa Airport

Retrieved 2019/11/21 12:20 UTC (21 minutes ago):

LICC 211220Z 28011KT 9999 SCT070 18/09 Q1014

Aviation forecast (TAF) for Catania-Fontanarossa Airport

Retrieved 2019/11/21 12:00 UTC (41 minutes ago):

TAF LICC 211100Z 2112/2212 25008KT 9999 FEW030